Time;durP1;ratioP1;P1;durP2;ratioP2;P2;SDS_P1;SDS_P2;PMS_P1;PMS_P2;Temp;Humidity;BMP_temperature;BMP_pressure;BME280_temperature;BME280_humidity;BME280_pressure;Samples;Min_cycle;Max_cycle;Signal;HPM_P1;HPM_P2
2023/11/13 00:01:20;;;;;;;6.27;5.70;;;9.60;99.90;;;;;;5055304;28;20985;-62
2023/11/13 00:03:46;;;;;;;8.60;6.80;;;9.60;99.90;;;;;;5054807;28;20829;-62
2023/11/13 00:06:13;;;;;;;7.27;6.53;;;9.50;99.90;;;;;;5056917;28;20491;-63
2023/11/13 00:08:39;;;;;;;6.40;5.70;;;9.50;99.90;;;;;;5066960;28;20174;-62
2023/11/13 00:11:05;;;;;;;8.07;6.40;;;9.50;99.90;;;;;;5063151;28;20434;-62
2023/11/13 00:13:31;;;;;;;7.00;6.30;;;9.50;99.90;;;;;;5066366;28;20511;-62
2023/11/13 00:15:57;;;;;;;9.70;6.30;;;9.40;99.90;;;;;;5043305;28;20579;-62
2023/11/13 00:18:23;;;;;;;6.30;5.80;;;9.40;99.90;;;;;;5054044;28;20641;-63
2023/11/13 00:20:49;;;;;;;7.57;6.83;;;9.40;99.90;;;;;;5054128;28;20474;-62
2023/11/13 00:23:15;;;;;;;6.87;6.17;;;9.30;99.90;;;;;;5054370;28;20605;-62
2023/11/13 00:25:41;;;;;;;7.43;6.73;;;9.30;99.90;;;;;;5054678;28;20163;-62
2023/11/13 00:28:06;;;;;;;8.60;6.97;;;9.30;99.90;;;;;;5054004;28;20794;-62
2023/11/13 00:30:32;;;;;;;6.37;5.90;;;9.30;99.90;;;;;;5053781;28;20436;-62
2023/11/13 00:32:58;;;;;;;7.73;6.50;;;9.30;99.90;;;;;;5054417;28;20182;-62
2023/11/13 00:35:24;;;;;;;7.00;6.30;;;9.30;99.90;;;;;;5054826;28;20260;-62
2023/11/13 00:37:49;;;;;;;6.33;5.73;;;9.40;99.90;;;;;;5054603;28;20175;-62
2023/11/13 00:40:16;;;;;;;6.80;6.30;;;9.30;99.90;;;;;;5055124;28;20201;-62
2023/11/13 00:42:41;;;;;;;6.80;6.20;;;9.30;99.90;;;;;;5054006;28;20166;-62
2023/11/13 00:45:07;;;;;;;6.30;5.70;;;9.50;99.90;;;;;;5054782;28;20424;-62
2023/11/13 00:47:33;;;;;;;6.37;5.73;;;9.30;99.90;;;;;;5054447;28;20195;-62
2023/11/13 00:49:59;;;;;;;7.23;6.57;;;9.40;99.90;;;;;;5054113;28;20912;-62
2023/11/13 00:52:25;;;;;;;6.33;5.73;;;9.30;99.90;;;;;;5054699;28;20168;-62
2023/11/13 00:54:52;;;;;;;5.90;5.30;;;9.00;99.90;;;;;;5035871;28;20205;-62
2023/11/13 00:57:18;;;;;;;7.23;6.53;;;8.80;99.90;;;;;;5054527;28;20260;-62
2023/11/13 00:59:43;;;;;;;6.47;5.87;;;8.60;99.90;;;;;;5034978;28;20547;-62
2023/11/13 01:02:09;;;;;;;7.30;6.60;;;8.50;99.90;;;;;;5053958;28;20180;-62
2023/11/13 01:04:35;;;;;;;6.73;6.10;;;8.40;99.90;;;;;;5054448;28;20235;-62
2023/11/13 01:07:01;;;;;;;6.60;6.00;;;8.50;99.90;;;;;;5053826;28;20401;-62
2023/11/13 01:09:27;;;;;;;7.23;5.90;;;8.60;99.90;;;;;;5054333;28;20575;-62
2023/11/13 01:11:52;;;;;;;7.50;6.80;;;8.60;99.90;;;;;;5053622;28;20687;-62
2023/11/13 01:14:19;;;;;;;8.00;7.20;;;8.60;99.90;;;;;;5036135;28;20170;-62
2023/11/13 01:16:45;;;;;;;7.27;6.57;;;8.90;99.90;;;;;;5067737;28;20244;-62
2023/11/13 01:19:11;;;;;;;7.77;6.47;;;8.70;99.90;;;;;;5074205;28;20420;-62
2023/11/13 01:21:37;;;;;;;5.90;5.40;;;8.60;99.90;;;;;;5073692;28;20442;-62
2023/11/13 01:24:03;;;;;;;6.63;5.93;;;8.60;99.90;;;;;;5073456;28;20184;-62
2023/11/13 01:26:29;;;;;;;6.03;5.43;;;8.50;99.90;;;;;;5072958;28;20252;-62
2023/11/13 01:28:54;;;;;;;7.10;5.93;;;8.70;99.90;;;;;;5071765;28;20487;-62
2023/11/13 01:31:20;;;;;;;5.80;5.30;;;8.80;99.90;;;;;;5073403;28;20272;-62
2023/11/13 01:33:47;;;;;;;6.37;5.87;;;8.80;99.90;;;;;;5073638;28;20165;-62
2023/11/13 01:36:12;;;;;;;6.00;5.30;;;8.90;99.90;;;;;;5073825;28;20952;-63
2023/11/13 01:38:38;;;;;;;6.17;5.57;;;8.90;99.90;;;;;;5074020;28;20173;-62
2023/11/13 01:41:05;;;;;;;6.50;6.00;;;8.70;99.90;;;;;;5071586;28;20201;-62
2023/11/13 01:43:31;;;;;;;9.00;5.70;;;9.10;99.90;;;;;;5073591;28;20269;-62
2023/11/13 01:45:58;;;;;;;5.93;5.33;;;9.10;99.90;;;;;;5073319;28;20416;-62
2023/11/13 01:48:25;;;;;;;6.60;6.00;;;9.20;99.90;;;;;;5073538;28;20460;-62
2023/11/13 01:50:52;;;;;;;6.37;5.73;;;9.20;99.90;;;;;;5072657;28;20413;-61
2023/11/13 01:53:22;;;;;;;5.73;5.33;;;9.30;99.90;;;;;;5073453;28;20460;-62
2023/11/13 01:55:49;;;;;;;5.83;5.33;;;9.40;99.90;;;;;;5072192;28;20542;-62
2023/11/13 01:58:17;;;;;;;5.30;4.93;;;9.40;99.90;;;;;;5073408;28;20414;-61
2023/11/13 02:00:43;;;;;;;5.80;5.30;;;9.30;99.90;;;;;;5071675;28;20447;-59
2023/11/13 02:03:10;;;;;;;7.07;5.10;;;9.30;99.90;;;;;;5073281;28;20420;-62
2023/11/13 02:05:38;;;;;;;6.33;5.73;;;9.30;99.90;;;;;;5072079;28;20810;-61
2023/11/13 02:08:05;;;;;;;6.70;5.70;;;9.20;99.90;;;;;;5072632;28;20464;-62
2023/11/13 02:10:31;;;;;;;5.63;5.13;;;9.30;99.90;;;;;;5073140;28;20415;-62
2023/11/13 02:12:57;;;;;;;5.57;5.10;;;9.10;99.90;;;;;;5072533;28;20408;-62
2023/11/13 02:15:23;;;;;;;5.83;5.23;;;9.10;99.90;;;;;;5066227;28;20467;-62
2023/11/13 02:18:03;;;;;;;6.00;5.40;;;9.20;99.90;;;;;;5052415;28;20418;-61
2023/11/13 02:20:31;;;;;;;5.80;5.30;;;9.40;99.90;;;;;;5035060;28;20447;-62
2023/11/13 02:22:57;;;;;;;6.20;5.50;;;9.40;99.90;;;;;;5052187;28;20864;-62
2023/11/13 02:25:24;;;;;;;5.57;4.97;;;9.40;99.90;;;;;;5052936;28;20419;-62
2023/11/13 02:28:00;;;;;;;6.37;5.77;;;9.60;99.90;;;;;;5052283;28;20474;-61
2023/11/13 02:30:26;;;;;;;5.93;5.43;;;9.70;99.90;;;;;;5051549;28;20428;-62
2023/11/13 02:32:52;;;;;;;6.83;5.87;;;9.70;99.90;;;;;;5051380;28;20781;-61
2023/11/13 02:35:18;;;;;;;5.80;5.20;;;9.80;99.90;;;;;;5051907;28;20432;-60
2023/11/13 02:37:44;;;;;;;6.07;5.47;;;9.90;99.90;;;;;;5052201;28;20180;-62
2023/11/13 02:40:11;;;;;;;6.30;4.90;;;9.90;99.90;;;;;;5052624;28;20193;-62
2023/11/13 02:42:40;;;;;;;6.63;5.50;;;10.00;99.90;;;;;;5052706;28;20469;-62
2023/11/13 02:45:08;;;;;;;5.17;4.77;;;10.00;99.90;;;;;;5052326;28;20469;-61
2023/11/13 02:47:34;;;;;;;5.90;5.40;;;10.10;99.90;;;;;;5052400;28;20453;-61
2023/11/13 02:49:59;;;;;;;6.07;5.60;;;10.10;99.90;;;;;;5051904;28;20408;-61
2023/11/13 02:52:26;;;;;;;6.20;5.40;;;10.10;99.90;;;;;;5052275;28;20931;-62
2023/11/13 02:54:52;;;;;;;5.60;4.60;;;10.20;99.90;;;;;;5051803;28;20176;-62
2023/11/13 02:57:21;;;;;;;6.00;5.40;;;10.20;99.90;;;;;;5052472;28;20433;-62
2023/11/13 02:59:47;;;;;;;5.30;4.80;;;10.30;99.90;;;;;;5050850;28;20465;-60
2023/11/13 03:02:12;;;;;;;8.93;5.13;;;10.30;99.90;;;;;;5052062;28;20465;-62
2023/11/13 03:04:39;;;;;;;5.47;4.97;;;10.30;99.90;;;;;;5052293;28;20167;-62
2023/11/13 03:07:04;;;;;;;7.77;5.00;;;10.30;99.90;;;;;;5051617;28;20173;-61
2023/11/13 03:09:30;;;;;;;6.10;5.60;;;10.40;99.90;;;;;;5051694;28;20423;-61
2023/11/13 03:11:57;;;;;;;5.83;5.33;;;10.30;99.90;;;;;;5051384;28;20443;-61
2023/11/13 03:14:22;;;;;;;6.53;5.30;;;10.30;99.90;;;;;;5052149;28;20192;-61
2023/11/13 03:16:48;;;;;;;5.07;4.67;;;10.40;99.90;;;;;;5051468;28;20486;-61
2023/11/13 03:19:14;;;;;;;5.73;5.23;;;10.40;99.90;;;;;;5052117;28;20254;-62
2023/11/13 03:21:40;;;;;;;5.40;5.00;;;10.40;99.90;;;;;;5051526;28;21008;-62
2023/11/13 03:24:06;;;;;;;5.83;5.20;;;10.40;99.90;;;;;;5051526;28;20169;-62
2023/11/13 03:26:32;;;;;;;5.47;5.00;;;10.40;99.90;;;;;;5052372;28;20439;-62
2023/11/13 03:28:58;;;;;;;5.70;5.30;;;10.40;99.90;;;;;;5049596;28;20464;-62
2023/11/13 03:31:24;;;;;;;6.13;5.53;;;10.40;99.90;;;;;;5051205;28;20188;-62
2023/11/13 03:33:51;;;;;;;12.63;7.03;;;10.50;99.90;;;;;;5051563;28;20183;-62
2023/11/13 03:36:16;;;;;;;5.20;4.80;;;10.50;99.90;;;;;;5052030;28;20225;-62
2023/11/13 03:38:42;;;;;;;5.50;5.00;;;10.50;99.90;;;;;;5052216;28;20409;-62
2023/11/13 03:41:08;;;;;;;5.10;4.60;;;10.60;99.90;;;;;;5051366;28;21001;-62
2023/11/13 03:43:35;;;;;;;5.20;4.80;;;10.50;99.90;;;;;;5052226;28;20251;-62
2023/11/13 03:46:02;;;;;;;5.73;5.20;;;10.50;99.90;;;;;;5050857;28;20530;-62
2023/11/13 03:48:28;;;;;;;5.40;5.07;;;10.60;99.90;;;;;;5051948;28;20406;-62
2023/11/13 03:50:54;;;;;;;5.17;4.73;;;10.70;99.90;;;;;;5051530;28;20412;-61
2023/11/13 03:53:20;;;;;;;5.53;4.97;;;10.70;99.90;;;;;;5051923;28;20424;-62
2023/11/13 03:55:46;;;;;;;4.90;4.60;;;10.80;99.90;;;;;;5051803;28;20182;-62
2023/11/13 03:58:12;;;;;;;7.60;5.87;;;10.80;99.90;;;;;;5051198;28;20177;-62
2023/11/13 04:00:38;;;;;;;4.97;4.57;;;10.80;99.90;;;;;;5050658;28;20455;-62
2023/11/13 04:03:03;;;;;;;4.93;4.53;;;10.80;99.90;;;;;;5051219;28;20410;-62
2023/11/13 04:05:29;;;;;;;4.90;4.50;;;10.80;99.90;;;;;;5034000;28;20407;-62
2023/11/13 04:07:56;;;;;;;6.20;5.70;;;10.80;99.90;;;;;;5050873;28;20177;-62
2023/11/13 04:10:22;;;;;;;6.50;5.93;;;10.80;99.90;;;;;;5051813;28;20197;-62
2023/11/13 04:12:48;;;;;;;5.13;4.73;;;10.90;99.90;;;;;;5051682;28;20399;-62
2023/11/13 04:15:13;;;;;;;6.03;5.47;;;10.90;99.90;;;;;;5050845;28;20566;-62
2023/11/13 04:17:40;;;;;;;5.47;5.03;;;10.90;99.90;;;;;;5051915;28;20202;-61
2023/11/13 04:20:07;;;;;;;5.60;5.20;;;10.90;99.90;;;;;;5054840;28;20481;-62
2023/11/13 04:22:33;;;;;;;5.80;5.40;;;10.90;99.90;;;;;;5055218;28;20401;-62
2023/11/13 04:25:02;;;;;;;5.70;5.20;;;10.90;99.90;;;;;;5054857;28;20461;-61
2023/11/13 04:27:29;;;;;;;5.47;5.00;;;10.90;99.90;;;;;;5055208;28;20412;-61
2023/11/13 04:29:56;;;;;;;5.53;5.00;;;10.90;99.90;;;;;;5053244;28;20433;-61
2023/11/13 04:32:23;;;;;;;5.20;4.80;;;10.90;99.90;;;;;;5055132;28;20921;-62
2023/11/13 04:34:49;;;;;;;5.67;5.17;;;10.90;99.90;;;;;;5055040;28;20450;-61
2023/11/13 04:37:15;;;;;;;5.40;5.00;;;10.90;99.90;;;;;;5054384;28;20724;-61
2023/11/13 04:39:41;;;;;;;5.20;4.80;;;10.90;99.90;;;;;;5054814;28;20409;-61
2023/11/13 04:42:06;;;;;;;5.10;4.70;;;10.90;99.90;;;;;;5054009;28;20431;-61
2023/11/13 04:44:32;;;;;;;5.30;4.90;;;10.90;99.90;;;;;;5054659;28;20226;-61
2023/11/13 04:46:58;;;;;;;5.27;4.77;;;10.90;99.90;;;;;;5054222;28;20203;-60
2023/11/13 04:49:24;;;;;;;5.63;5.10;;;10.90;99.90;;;;;;5054746;28;20173;-61
2023/11/13 04:51:50;;;;;;;5.60;4.80;;;10.90;99.90;;;;;;5054710;28;20170;-61
2023/11/13 04:54:17;;;;;;;6.57;5.63;;;11.00;99.90;;;;;;5036138;28;20424;-61
2023/11/13 04:56:42;;;;;;;6.60;6.10;;;10.90;99.90;;;;;;5054788;28;20750;-61
2023/11/13 04:59:11;;;;;;;6.03;5.60;;;11.00;99.90;;;;;;5052935;28;20520;-61
2023/11/13 05:01:39;;;;;;;5.77;5.30;;;11.00;99.90;;;;;;5020101;28;20664;-61
2023/11/13 05:04:09;;;;;;;6.10;5.60;;;11.00;99.90;;;;;;5053914;28;20400;-61
2023/11/13 05:06:35;;;;;;;6.20;5.70;;;11.00;99.90;;;;;;5054054;28;20424;-66
2023/11/13 05:09:03;;;;;;;6.33;5.70;;;11.00;99.90;;;;;;5053281;28;20623;-64
2023/11/13 05:11:29;;;;;;;6.80;6.20;;;11.10;99.90;;;;;;5054265;28;20433;-64
2023/11/13 05:13:55;;;;;;;6.63;6.13;;;11.10;99.90;;;;;;5053677;28;20452;-63
2023/11/13 05:16:22;;;;;;;7.17;6.53;;;11.10;99.90;;;;;;5053960;28;20456;-64
2023/11/13 05:18:51;;;;;;;8.30;7.60;;;11.10;99.90;;;;;;5053892;28;20207;-64
2023/11/13 05:21:17;;;;;;;5.97;5.47;;;11.10;99.90;;;;;;5053487;28;20449;-63
2023/11/13 05:23:43;;;;;;;6.47;5.87;;;11.00;99.90;;;;;;5054053;28;20909;-61
2023/11/13 05:26:09;;;;;;;7.40;6.60;;;11.10;99.90;;;;;;5053289;28;20392;-61
2023/11/13 05:28:35;;;;;;;6.07;5.53;;;11.10;99.90;;;;;;5051570;28;20823;-61
2023/11/13 05:31:02;;;;;;;7.00;5.70;;;11.10;99.90;;;;;;5052448;28;20222;-61
2023/11/13 05:33:28;;;;;;;5.83;5.33;;;11.20;99.90;;;;;;5053629;28;20467;-62
2023/11/13 05:35:54;;;;;;;6.43;5.23;;;11.10;99.90;;;;;;5053865;28;20418;-61
2023/11/13 05:38:20;;;;;;;5.27;4.87;;;11.20;99.90;;;;;;5035539;28;20411;-62
2023/11/13 05:40:46;;;;;;;5.97;5.47;;;11.20;99.90;;;;;;5054011;28;20791;-62
2023/11/13 05:43:12;;;;;;;4.70;4.30;;;11.20;99.90;;;;;;5035269;28;20172;-62
2023/11/13 05:45:38;;;;;;;5.40;5.00;;;11.30;99.90;;;;;;5053589;28;20163;-61
2023/11/13 05:48:05;;;;;;;4.30;4.00;;;11.20;99.90;;;;;;5052624;28;20768;-61
2023/11/13 05:50:31;;;;;;;4.27;3.97;;;11.30;99.90;;;;;;5053568;28;20417;-62
2023/11/13 05:52:57;;;;;;;4.50;4.10;;;11.30;99.90;;;;;;5053084;28;20404;-59
2023/11/13 05:55:23;;;;;;;5.53;5.13;;;11.40;99.90;;;;;;5018745;28;20415;-62
2023/11/13 05:57:49;;;;;;;5.37;5.07;;;11.40;99.90;;;;;;5053378;28;20420;-62
2023/11/13 06:00:18;;;;;;;5.10;4.70;;;11.40;99.90;;;;;;5051503;28;20944;-61
2023/11/13 06:02:44;;;;;;;5.13;4.73;;;11.40;99.90;;;;;;5040985;28;20421;-62
2023/11/13 06:05:10;;;;;;;4.80;4.50;;;11.40;99.90;;;;;;5052799;28;20401;-62
2023/11/13 06:07:37;;;;;;;6.63;4.80;;;11.40;99.90;;;;;;5049400;28;20447;-61
2023/11/13 06:10:10;;;;;;;5.10;4.70;;;11.50;99.90;;;;;;5051652;28;20820;-61
2023/11/13 06:12:39;;;;;;;5.00;4.60;;;11.50;99.90;;;;;;5053148;28;20806;-62
2023/11/13 06:15:13;;;;;;;4.77;4.40;;;11.50;99.90;;;;;;5051064;28;20852;-61
2023/11/13 06:17:43;;;;;;;4.70;4.30;;;11.50;99.90;;;;;;5053084;28;20416;-61
2023/11/13 06:20:13;;;;;;;4.40;4.10;;;11.50;99.90;;;;;;5052296;28;20935;-62
2023/11/13 06:22:43;;;;;;;4.20;3.80;;;11.50;99.90;;;;;;5052962;28;20421;-61
2023/11/13 06:25:11;;;;;;;5.17;4.37;;;11.60;99.90;;;;;;5052380;28;20408;-61
2023/11/13 06:27:38;;;;;;;5.07;4.67;;;11.60;99.90;;;;;;5053033;28;20538;-62
2023/11/13 06:30:05;;;;;;;5.37;4.97;;;11.60;99.90;;;;;;5033574;28;20927;-59
2023/11/13 06:32:31;;;;;;;4.43;4.13;;;11.60;99.90;;;;;;5052786;28;20419;-61
2023/11/13 06:34:57;;;;;;;5.23;4.07;;;11.60;99.90;;;;;;5052502;28;20431;-59
2023/11/13 06:37:24;;;;;;;4.33;4.03;;;11.70;99.90;;;;;;5034007;28;20554;-58
2023/11/13 06:39:49;;;;;;;4.50;4.20;;;11.60;99.90;;;;;;5052592;28;20404;-60
2023/11/13 06:42:15;;;;;;;5.13;4.70;;;11.60;99.90;;;;;;5050178;28;20470;-59
2023/11/13 06:44:44;;;;;;;5.07;4.67;;;11.60;99.90;;;;;;5050643;28;20182;-59
2023/11/13 06:47:10;;;;;;;4.70;4.40;;;11.60;99.90;;;;;;5048746;28;20169;-59
2023/11/13 06:49:39;;;;;;;5.77;5.37;;;11.50;99.90;;;;;;5051151;28;20461;-59
2023/11/13 06:52:08;;;;;;;4.80;4.40;;;11.50;99.90;;;;;;5014284;28;20425;-60
2023/11/13 06:54:35;;;;;;;4.70;4.30;;;11.50;99.90;;;;;;5039787;28;20403;-59
2023/11/13 06:57:02;;;;;;;5.30;4.90;;;11.50;99.90;;;;;;5051123;28;20451;-58
2023/11/13 06:59:28;;;;;;;5.07;4.77;;;11.50;99.90;;;;;;5034727;28;20757;-59
2023/11/13 07:01:55;;;;;;;5.27;4.70;;;11.50;99.90;;;;;;5052588;28;20451;-61
2023/11/13 07:04:21;;;;;;;5.50;5.00;;;11.40;99.90;;;;;;5051962;28;20707;-61
2023/11/13 07:06:47;;;;;;;5.50;5.00;;;11.40;99.90;;;;;;5052359;28;20756;-63
2023/11/13 07:09:13;;;;;;;5.20;4.80;;;11.40;99.90;;;;;;5043893;28;20501;-65
2023/11/13 07:11:43;;;;;;;6.20;5.70;;;11.40;99.90;;;;;;5048170;28;20247;-66
2023/11/13 07:14:12;;;;;;;5.20;4.80;;;11.40;99.90;;;;;;5049404;28;20532;-65
2023/11/13 07:16:38;;;;;;;5.97;5.10;;;11.40;99.90;;;;;;5049529;28;20962;-65
2023/11/13 07:19:04;;;;;;;5.70;5.20;;;11.40;99.90;;;;;;5050514;28;20779;-65
2023/11/13 07:21:31;;;;;;;6.13;5.53;;;11.40;99.90;;;;;;5051789;28;20453;-65
2023/11/13 07:23:58;;;;;;;5.63;5.23;;;11.40;99.90;;;;;;5051378;28;20420;-64
2023/11/13 07:26:25;;;;;;;5.67;5.20;;;11.40;99.90;;;;;;5049439;28;20428;-65
2023/11/13 07:28:50;;;;;;;7.40;6.40;;;11.40;99.90;;;;;;5050421;28;20431;-65
2023/11/13 07:31:16;;;;;;;6.30;5.63;;;11.40;99.90;;;;;;5033725;28;20402;-64
2023/11/13 07:33:42;;;;;;;6.50;5.90;;;11.40;99.90;;;;;;5051039;28;20232;-65
2023/11/13 07:36:12;;;;;;;5.93;5.43;;;11.40;99.90;;;;;;5049248;28;20196;-65
2023/11/13 07:38:39;;;;;;;5.83;5.30;;;11.40;99.90;;;;;;5052075;28;20810;-64
2023/11/13 07:41:10;;;;;;;7.20;5.30;;;11.40;99.90;;;;;;5050204;28;20462;-65
2023/11/13 07:43:39;;;;;;;6.03;5.43;;;11.40;99.90;;;;;;5051909;28;20809;-64
2023/11/13 07:46:07;;;;;;;6.07;5.30;;;11.50;99.90;;;;;;5050133;28;20431;-66
2023/11/13 07:48:37;;;;;;;8.70;6.20;;;11.50;99.90;;;;;;5052113;28;20449;-65
2023/11/13 07:51:05;;;;;;;8.90;5.20;;;11.60;99.90;;;;;;5051886;28;20410;-65
2023/11/13 07:53:33;;;;;;;6.77;5.83;;;11.60;99.90;;;;;;5053816;28;20463;-65
2023/11/13 07:55:59;;;;;;;7.50;5.80;;;11.70;99.90;;;;;;5055802;28;20859;-65
2023/11/13 07:58:26;;;;;;;5.67;5.17;;;11.70;99.90;;;;;;5055358;28;20731;-64
2023/11/13 08:00:53;;;;;;;5.73;5.13;;;11.70;99.90;;;;;;5055624;28;20539;-64
2023/11/13 08:03:23;;;;;;;6.10;5.37;;;11.80;99.90;;;;;;5054502;28;20434;-64
2023/11/13 08:05:49;;;;;;;5.60;5.20;;;11.90;99.90;;;;;;5055483;28;20413;-64
2023/11/13 08:08:16;;;;;;;6.33;5.70;;;11.80;99.90;;;;;;5054309;28;20416;-65
2023/11/13 08:10:46;;;;;;;7.73;6.30;;;11.70;99.90;;;;;;5035614;28;20430;-66
2023/11/13 08:13:13;;;;;;;6.77;5.00;;;11.80;99.90;;;;;;5043105;28;20428;-64
2023/11/13 08:15:40;;;;;;;10.77;6.80;;;11.80;99.90;;;;;;5054803;28;20455;-64
2023/11/13 08:18:05;;;;;;;7.63;4.97;;;11.80;99.90;;;;;;5054428;28;20430;-69
2023/11/13 08:20:31;;;;;;;5.03;4.70;;;11.80;99.90;;;;;;5053698;28;20455;-64
2023/11/13 08:22:57;;;;;;;4.53;4.07;;;11.80;99.90;;;;;;5055127;28;20172;-65
2023/11/13 08:25:24;;;;;;;4.57;4.17;;;11.90;99.90;;;;;;5054102;28;20167;-64
2023/11/13 08:27:52;;;;;;;6.10;4.03;;;11.80;99.90;;;;;;5054599;28;20420;-64
2023/11/13 08:30:22;;;;;;;3.73;3.53;;;11.70;99.90;;;;;;5053195;28;20436;-64
2023/11/13 08:32:51;;;;;;;3.83;3.50;;;11.70;99.90;;;;;;5054558;28;20421;-64
2023/11/13 08:35:18;;;;;;;4.03;3.70;;;11.70;99.90;;;;;;5053971;28;20506;-64
2023/11/13 08:37:47;;;;;;;6.40;5.80;;;11.70;99.90;;;;;;5055040;28;20424;-64
2023/11/13 08:40:14;;;;;;;6.10;5.77;;;11.80;99.90;;;;;;5054182;28;21009;-65
2023/11/13 08:42:41;;;;;;;4.47;4.07;;;11.80;99.90;;;;;;5054943;28;20491;-64
2023/11/13 08:45:12;;;;;;;4.17;3.87;;;11.90;99.90;;;;;;5054619;28;20465;-69
2023/11/13 08:47:45;;;;;;;3.83;3.53;;;11.90;99.90;;;;;;5054897;28;20397;-64
2023/11/13 08:50:14;;;;;;;4.00;3.80;;;11.90;99.90;;;;;;5053157;28;20427;-65
2023/11/13 08:52:41;;;;;;;4.70;4.10;;;11.90;99.90;;;;;;5054832;28;20408;-65
2023/11/13 08:55:10;;;;;;;4.23;3.93;;;11.90;99.90;;;;;;5054738;28;20404;-64
2023/11/13 08:57:46;;;;;;;3.83;3.73;;;12.00;99.90;;;;;;5054601;28;20414;-64
2023/11/13 09:00:21;;;;;;;3.50;3.30;;;11.90;99.90;;;;;;5053922;28;20461;-65
2023/11/13 09:02:47;;;;;;;3.67;3.37;;;11.90;99.90;;;;;;5054640;28;20388;-65
2023/11/13 09:05:14;;;;;;;3.10;2.83;;;11.90;99.90;;;;;;5053712;28;20473;-64
2023/11/13 09:07:43;;;;;;;3.03;2.90;;;11.80;99.90;;;;;;5054747;28;20807;-64
2023/11/13 09:10:10;;;;;;;3.20;3.00;;;11.90;99.90;;;;;;5053876;28;20894;-65
2023/11/13 09:12:40;;;;;;;3.20;3.00;;;11.90;99.90;;;;;;5054619;28;20426;-64
2023/11/13 09:15:14;;;;;;;3.07;2.87;;;11.90;99.90;;;;;;5062551;28;20946;-64
2023/11/13 09:17:41;;;;;;;3.33;2.80;;;11.90;99.90;;;;;;5094754;28;20856;-64
2023/11/13 09:20:08;;;;;;;3.07;2.83;;;12.00;99.90;;;;;;5092864;28;20799;-67
2023/11/13 09:22:34;;;;;;;3.40;3.30;;;12.00;99.90;;;;;;5089670;28;20537;-65
2023/11/13 09:25:00;;;;;;;3.27;2.97;;;12.00;99.90;;;;;;5094415;28;20451;-64
2023/11/13 09:27:26;;;;;;;2.70;2.50;;;12.00;99.90;;;;;;5093702;28;20217;-65
2023/11/13 09:29:52;;;;;;;2.90;2.70;;;12.00;99.90;;;;;;5076113;28;20442;-65
2023/11/13 09:32:21;;;;;;;4.80;3.03;;;12.10;99.90;;;;;;5093869;28;20160;-65
2023/11/13 09:34:47;;;;;;;3.00;2.80;;;12.10;99.90;;;;;;5075990;28;20187;-65
2023/11/13 09:37:15;;;;;;;3.80;3.50;;;12.00;99.90;;;;;;5093528;28;20407;-65
2023/11/13 09:39:42;;;;;;;3.60;3.30;;;11.90;99.90;;;;;;5094043;28;20404;-65
2023/11/13 09:42:16;;;;;;;4.63;4.13;;;11.90;99.90;;;;;;5094053;28;20417;-65
2023/11/13 09:44:43;;;;;;;3.30;3.10;;;11.90;99.90;;;;;;5093955;28;20937;-65
2023/11/13 09:47:10;;;;;;;4.23;3.33;;;11.90;99.90;;;;;;5093964;28;20414;-65
2023/11/13 09:49:43;;;;;;;2.87;2.67;;;12.00;99.90;;;;;;5093968;28;20463;-65
2023/11/13 09:52:12;;;;;;;2.50;2.40;;;12.00;99.90;;;;;;5083743;28;20421;-65
2023/11/13 09:54:39;;;;;;;3.67;3.37;;;12.00;99.90;;;;;;5087497;28;20508;-64
2023/11/13 09:57:09;;;;;;;2.50;2.40;;;12.10;99.90;;;;;;5090962;28;20478;-64
2023/11/13 09:59:36;;;;;;;3.87;3.40;;;12.00;99.90;;;;;;5093017;28;20401;-64
2023/11/13 10:02:07;;;;;;;2.93;2.70;;;12.00;99.90;;;;;;5075315;28;20951;-64
2023/11/13 10:04:34;;;;;;;2.63;2.50;;;12.00;99.90;;;;;;5071343;28;20513;-64
2023/11/13 10:07:02;;;;;;;2.50;2.40;;;11.70;99.90;;;;;;5093574;28;20405;-64
2023/11/13 10:09:31;;;;;;;3.27;2.60;;;11.60;99.90;;;;;;5093060;28;20409;-64
2023/11/13 10:11:59;;;;;;;3.07;2.97;;;11.70;99.90;;;;;;5093494;28;20408;-64
2023/11/13 10:14:25;;;;;;;3.00;2.90;;;11.70;99.90;;;;;;5092727;28;20465;-64
2023/11/13 10:17:00;;;;;;;2.90;2.70;;;11.80;99.90;;;;;;5089418;28;20463;-64
2023/11/13 10:19:26;;;;;;;3.67;3.37;;;11.90;99.90;;;;;;5092723;28;20391;-64
2023/11/13 10:21:54;;;;;;;3.10;2.90;;;12.00;99.90;;;;;;5093212;28;20531;-64
2023/11/13 10:24:22;;;;;;;3.30;3.10;;;12.10;99.90;;;;;;5071306;28;20423;-64
2023/11/13 10:26:52;;;;;;;3.37;3.17;;;12.20;99.90;;;;;;5075226;28;20399;-64
2023/11/13 10:29:27;;;;;;;4.23;3.13;;;12.20;99.90;;;;;;5092560;28;20416;-64
2023/11/13 10:31:56;;;;;;;3.20;3.10;;;12.20;99.90;;;;;;5075099;28;20415;-64
2023/11/13 10:34:23;;;;;;;2.90;2.77;;;12.20;99.90;;;;;;5089441;28;20422;-64
2023/11/13 10:37:08;;;;;;;2.57;2.47;;;12.20;99.90;;;;;;5091645;28;20515;-65
2023/11/13 10:39:36;;;;;;;3.40;3.10;;;12.00;99.90;;;;;;5079828;28;20435;-65
2023/11/13 10:42:15;;;;;;;3.00;2.80;;;11.90;99.90;;;;;;5092860;28;20987;-65
2023/11/13 10:44:40;;;;;;;2.87;2.77;;;12.10;99.90;;;;;;5093071;28;20414;-65
2023/11/13 10:47:26;;;;;;;2.93;2.73;;;12.10;99.90;;;;;;5092887;28;20416;-65
2023/11/13 10:49:56;;;;;;;2.40;2.30;;;12.10;99.90;;;;;;5092775;28;20160;-65
2023/11/13 10:52:23;;;;;;;2.10;2.10;;;12.10;99.90;;;;;;5074150;28;20381;-65
2023/11/13 10:54:51;;;;;;;2.40;2.30;;;12.10;99.90;;;;;;5074679;28;20404;-65
2023/11/13 10:57:19;;;;;;;2.23;2.13;;;12.10;99.90;;;;;;5092163;28;20412;-65
2023/11/13 10:59:50;;;;;;;2.23;2.20;;;12.00;99.90;;;;;;5074529;28;20401;-65
2023/11/13 11:02:36;;;;;;;2.30;2.20;;;12.00;99.90;;;;;;5073857;28;20505;-65
2023/11/13 11:05:10;;;;;;;2.37;2.27;;;12.00;99.90;;;;;;5092788;28;20410;-65
2023/11/13 11:07:37;;;;;;;2.80;2.70;;;12.00;99.90;;;;;;5091980;28;20390;-65
2023/11/13 11:10:07;;;;;;;2.60;2.40;;;12.00;99.90;;;;;;5088150;28;20432;-65
2023/11/13 11:12:39;;;;;;;2.50;2.40;;;12.10;99.90;;;;;;5092197;28;20565;-65
2023/11/13 11:15:11;;;;;;;2.47;2.37;;;12.20;99.90;;;;;;5092552;28;20460;-65
2023/11/13 11:17:43;;;;;;;3.40;2.50;;;12.20;99.90;;;;;;5091946;28;20412;-65
2023/11/13 11:20:17;;;;;;;2.50;2.40;;;12.40;99.90;;;;;;5092500;28;20433;-65
2023/11/13 11:22:49;;;;;;;2.50;2.40;;;12.40;99.90;;;;;;5058588;28;20388;-64
2023/11/13 11:25:16;;;;;;;2.20;2.00;;;12.40;99.90;;;;;;5074879;28;20392;-65
2023/11/13 11:27:44;;;;;;;3.23;3.03;;;12.50;99.90;;;;;;5093085;28;20441;-64
2023/11/13 11:30:18;;;;;;;2.87;2.77;;;12.60;99.90;;;;;;5096536;28;20418;-64
2023/11/13 11:33:01;;;;;;;2.73;2.53;;;12.70;99.90;;;;;;5096712;28;20418;-64
2023/11/13 11:35:31;;;;;;;3.27;2.80;;;12.80;99.90;;;;;;5096229;28;20458;-65
2023/11/13 11:38:26;;;;;;;4.00;3.70;;;12.80;99.90;;;;;;5096456;28;20442;-64
2023/11/13 11:40:53;;;;;;;3.20;3.10;;;12.80;99.90;;;;;;5096281;28;20791;-64
2023/11/13 11:43:22;;;;;;;3.53;3.00;;;12.90;99.90;;;;;;5095700;28;20394;-65
2023/11/13 11:45:52;;;;;;;3.80;3.50;;;13.00;99.90;;;;;;5096502;28;20407;-65
2023/11/13 11:48:19;;;;;;;5.47;4.20;;;13.00;99.90;;;;;;5095680;28;20408;-67
2023/11/13 11:50:46;;;;;;;3.63;3.10;;;13.10;99.90;;;;;;5095922;28;20411;-65
2023/11/13 11:53:20;;;;;;;4.13;3.30;;;13.10;99.90;;;;;;5096335;28;20444;-64
2023/11/13 11:55:46;;;;;;;3.60;3.07;;;13.10;99.90;;;;;;5096082;28;20392;-64
2023/11/13 11:58:16;;;;;;;3.53;3.37;;;13.20;99.90;;;;;;5095984;28;20767;-64
2023/11/13 12:00:44;;;;;;;3.03;2.80;;;13.20;99.90;;;;;;5095339;28;20215;-65
2023/11/13 12:03:10;;;;;;;3.60;3.23;;;13.20;99.90;;;;;;5094139;28;20461;-64
2023/11/13 12:05:36;;;;;;;3.00;2.80;;;13.20;99.90;;;;;;5093866;28;20448;-65
2023/11/13 12:08:07;;;;;;;2.90;2.80;;;13.20;99.90;;;;;;5096112;28;20888;-64
2023/11/13 12:10:34;;;;;;;5.13;3.23;;;13.30;99.90;;;;;;5095193;28;20402;-65
2023/11/13 12:13:00;;;;;;;4.13;3.27;;;13.30;99.90;;;;;;5095907;28;20450;-64
2023/11/13 12:15:26;;;;;;;3.50;3.10;;;13.40;99.90;;;;;;5094705;28;20462;-65
2023/11/13 12:17:53;;;;;;;4.53;2.60;;;13.30;99.90;;;;;;5095586;28;20413;-64
2023/11/13 12:20:19;;;;;;;3.40;3.00;;;13.40;99.90;;;;;;5057319;28;20470;-65
2023/11/13 12:22:45;;;;;;;2.83;2.63;;;13.40;99.90;;;;;;5072723;28;20459;-64
2023/11/13 12:25:12;;;;;;;4.03;3.90;;;13.30;99.90;;;;;;5068668;28;20461;-64
2023/11/13 12:27:40;;;;;;;3.27;3.07;;;13.30;99.90;;;;;;5056506;28;20203;-65
2023/11/13 12:30:43;;;;;;;5.77;4.03;;;13.30;99.90;;;;;;5075382;28;20488;-64
2023/11/13 12:33:02;;;;;;;3.70;2.97;;;13.30;99.90;;;;;;5071706;28;20452;-65
2023/11/13 12:35:33;;;;;;;3.00;2.80;;;13.40;99.90;;;;;;5065639;28;20456;-64
2023/11/13 12:38:02;;;;;;;3.43;3.23;;;13.40;99.90;;;;;;5095457;28;20428;-65
2023/11/13 12:40:28;;;;;;;2.93;2.73;;;13.50;99.90;;;;;;5094135;28;20532;-65
2023/11/13 12:42:54;;;;;;;3.20;2.90;;;13.50;99.90;;;;;;5095156;28;20406;-65
2023/11/13 12:45:19;;;;;;;2.83;2.73;;;13.50;99.90;;;;;;5095563;28;20409;-64
2023/11/13 12:47:47;;;;;;;4.37;2.90;;;13.60;99.90;;;;;;5094478;28;20172;-64
2023/11/13 12:50:18;;;;;;;3.33;2.90;;;13.60;99.90;;;;;;5095336;28;20612;-65